Latest Coastal Weather Observations for South Channel Island

IDV60701

Issued at 7:52 pm EST Monday 4 May 2026 (issued every 10 minutes, with the page automatically refreshed every 10 minutes)

About coastal observations | Map of coastal stations | Coastal observations for VIC | Marine services | Other Formats
Station Details ID: 086344 Name: SOUTH CHANNEL ISLAND Lat: -38.31 Lon: 144.80 Height: 9.0 m
Data from the previous 72 hours. | See also: Recent months at South Channel Island
Date/Time
EST
Wind Sea
Height
m
Swell Vis
km
Cloud Weather Temp
°C
Press
MSL
hPa
Rain since
9am
mm
Dir  Spd
kts
Gust
kts
Height
m
Period
s
Dir
04/07:44pm NW 22 33 - - - - - - - - - -
04/07:30pm NNW 25 29 - - - - - - - - - -
04/07:00pm NNW 27 31 - - - - - - - - - -
04/06:30pm N 25 31 - - - - - - - - - -
04/06:00pm N 25 31 - - - - - - - - - -
04/05:30pm N 30 34 - - - - - - - - - -
04/05:00pm N 28 31 - - - - - - - - - -
04/04:30pm N 28 33 - - - - - - - - - -
04/04:00pm N 28 33 - - - - - - - - - -
04/03:30pm N 27 32 - - - - - - - - - -
04/03:00pm N 27 31 - - - - - - - - - -
04/02:30pm N 25 31 - - - - - - - - - -
04/02:00pm NNW 27 32 - - - - - - - - - -
04/01:30pm NNW 28 33 - - - - - - - - - -
04/01:00pm NNW 25 30 - - - - - - - - - -
04/12:30pm N 25 30 - - - - - - - - - -
04/12:00pm N 27 31 - - - - - - - - - -
04/11:30am N 28 32 - - - - - - - - - -
04/11:00am N 29 33 - - - - - - - - - -
04/10:30am N 26 31 - - - - - - - - - -
04/10:00am N 27 32 - - - - - - - - - -
04/09:30am N 27 31 - - - - - - - - - -
04/09:00am N 27 30 - - - - - - - - - -
04/08:30am N 26 29 - - - - - - - - - -
04/08:00am N 26 30 - - - - - - - - - -
04/07:30am N 26 29 - - - - - - - - - -
04/07:00am N 26 29 - - - - - - - - - -
04/06:30am N 25 29 - - - - - - - - - -
04/06:00am N 23 26 - - - - - - - - - -
04/05:30am N 22 26 - - - - - - - - - -
04/05:00am N 22 26 - - - - - - - - - -
04/04:30am N 23 26 - - - - - - - - - -
04/04:00am N 22 26 - - - - - - - - - -
04/03:30am N 23 28 - - - - - - - - - -
04/03:00am N 21 24 - - - - - - - - - -
04/02:30am N 20 24 - - - - - - - - - -
04/02:00am N 21 25 - - - - - - - - - -
04/01:30am N 21 24 - - - - - - - - - -
04/01:00am N 21 24 - - - - - - - - - -
04/12:30am N 22 25 - - - - - - - - - -
04/12:00am N 22 27 - - - - - - - - - -
 
Date/Time
EST
Wind Sea
Height
m
Swell Vis
km
Cloud Weather Temp
°C
Press
MSL
hPa
Rain since
9am
mm
Dir  Spd
kts
Gust
kts
Height
m
Period
s
Dir
03/11:30pm N 21 24 - - - - - - - - - -
03/11:00pm N 21 25 - - - - - - - - - -
03/10:30pm N 21 25 - - - - - - - - - -
03/10:00pm N 21 26 - - - - - - - - - -
03/09:30pm N 21 26 - - - - - - - - - -
03/09:00pm N 21 25 - - - - - - - - - -
03/08:30pm N 20 23 - - - - - - - - - -
03/08:00pm N 18 20 - - - - - - - - - -
03/07:30pm N 17 19 - - - - - - - - - -
03/07:00pm N 14 16 - - - - - - - - - -
03/06:30pm N 15 16 - - - - - - - - - -
03/06:00pm NNW 15 17 - - - - - - - - - -
03/05:30pm NNW 15 18 - - - - - - - - - -
03/05:00pm NW 14 16 - - - - - - - - - -
03/04:30pm WNW 15 18 - - - - - - - - - -
03/04:00pm NNW 9 10 - - - - - - - - - -
03/03:30pm NW 11 13 - - - - - - - - - -
03/03:00pm NW 14 16 - - - - - - - - - -
03/02:30pm NW 16 19 - - - - - - - - - -
03/02:00pm NW 18 21 - - - - - - - - - -
03/01:30pm NW 13 15 - - - - - - - - - -
03/01:00pm WNW 19 27 - - - - - - - - - -
03/12:55pm NW 21 27 - - - - - - - - - -
03/12:51pm NNW 23 28 - - - - - - - - - -
03/12:30pm N 23 27 - - - - - - - - - -
03/12:00pm N 22 28 - - - - - - - - - -
03/11:30am NNE 26 31 - - - - - - - - - -
03/11:00am NNE 27 32 - - - - - - - - - -
03/10:30am NNE 31 36 - - - - - - - - - -
03/10:16am NNE 27 39 - - - - - - - - - -
03/10:11am NNE 22 32 - - - - - - - - - -
03/10:00am N 17 24 - - - - - - - - - -
03/09:30am N 18 22 - - - - - - - - - -
03/09:00am NNE 20 23 - - - - - - - - - -
03/08:30am NNE 21 26 - - - - - - - - - -
03/08:00am N 27 32 - - - - - - - - - -
03/07:30am N 25 29 - - - - - - - - - -
03/07:00am N 22 26 - - - - - - - - - -
03/06:30am NNE 18 20 - - - - - - - - - -
03/06:00am N 19 22 - - - - - - - - - -
03/05:30am N 19 22 - - - - - - - - - -
03/05:00am N 18 22 - - - - - - - - - -
03/04:30am N 17 20 - - - - - - - - - -
03/04:00am NE 12 17 - - - - - - - - - -
03/03:44am NE 15 25 - - - - - - - - - -
03/03:30am NNE 13 15 - - - - - - - - - -
03/03:00am N 15 16 - - - - - - - - - -
03/02:30am NNE 13 15 - - - - - - - - - -
03/02:00am NNE 9 10 - - - - - - - - - -
03/01:30am NE 10 11 - - - - - - - - - -
03/01:00am NNE 9 11 - - - - - - - - - -
03/12:30am NNE 8 9 - - - - - - - - - -
03/12:00am NE 8 9 - - - - - - - - - -
 
Date/Time
EST
Wind Sea
Height
m
Swell Vis
km
Cloud Weather Temp
°C
Press
MSL
hPa
Rain since
9am
mm
Dir  Spd
kts
Gust
kts
Height
m
Period
s
Dir
02/11:30pm N 7 7 - - - - - - - - - -
02/11:00pm N 7 8 - - - - - - - - - -
02/10:30pm NNE 10 11 - - - - - - - - - -
02/10:00pm N 12 13 - - - - - - - - - -
02/09:30pm NNE 15 17 - - - - - - - - - -
02/09:00pm NE 11 13 - - - - - - - - - -
02/08:30pm NE 9 10 - - - - - - - - - -
02/08:00pm NNE 10 12 - - - - - - - - - -
02/07:30pm NNE 14 14 - - - - - - - - - -
02/07:00pm NNE 16 17 - - - - - - - - - -
02/06:30pm N 18 20 - - - - - - - - - -
02/06:00pm N 19 21 - - - - - - - - - -
02/05:30pm N 16 17 - - - - - - - - - -
02/05:00pm N 16 18 - - - - - - - - - -
02/04:30pm NNE 13 14 - - - - - - - - - -
02/04:00pm NE 14 15 - - - - - - - - - -
02/03:30pm NE 17 18 - - - - - - - - - -
02/03:00pm NE 16 18 - - - - - - - - - -
02/02:30pm NE 17 19 - - - - - - - - - -
02/02:00pm NNE 17 18 - - - - - - - - - -
02/01:30pm NNE 14 15 - - - - - - - - - -
02/01:00pm NNE 9 10 - - - - - - - - - -
02/12:30pm N 11 13 - - - - - - - - - -
02/12:00pm N 11 12 - - - - - - - - - -
02/11:30am N 14 15 - - - - - - - - - -
02/11:00am N 10 12 - - - - - - - - - -
02/10:30am NNE 12 14 - - - - - - - - - -
02/10:00am NNE 10 12 - - - - - - - - - -
02/09:30am N 13 15 - - - - - - - - - -
02/09:00am NNE 13 14 - - - - - - - - - -
02/08:30am NE 10 11 - - - - - - - - - -
02/08:00am NNE 11 13 - - - - - - - - - -
02/07:30am NE 9 10 - - - - - - - - - -
02/07:00am NNE 9 10 - - - - - - - - - -
02/06:30am NNE 10 10 - - - - - - - - - -
02/06:00am NNE 10 11 - - - - - - - - - -
02/05:30am N 8 9 - - - - - - - - - -
02/05:00am N 9 10 - - - - - - - - - -
02/04:30am NNE 11 12 - - - - - - - - - -
02/04:00am NE 13 14 - - - - - - - - - -
02/03:30am NE 10 12 - - - - - - - - - -
02/03:00am NE 12 14 - - - - - - - - - -
02/02:30am NE 13 14 - - - - - - - - - -
02/02:00am NE 14 16 - - - - - - - - - -
02/01:30am NE 11 13 - - - - - - - - - -
02/01:00am NE 11 12 - - - - - - - - - -
02/12:30am NNE 10 11 - - - - - - - - - -
02/12:00am NNE 9 10 - - - - - - - - - -
 
Date/Time
EST
Wind Sea
Height
m
Swell Vis
km
Cloud Weather Temp
°C
Press
MSL
hPa
Rain since
9am
mm
Dir  Spd
kts
Gust
kts
Height
m
Period
s
Dir
01/11:30pm NNE 10 12 - - - - - - - - - -
01/11:00pm NNE 13 14 - - - - - - - - - -
01/10:30pm NE 13 14 - - - - - - - - - -
01/10:00pm NE 14 15 - - - - - - - - - -
01/09:30pm NE 14 15 - - - - - - - - - -
01/09:00pm NE 15 16 - - - - - - - - - -
01/08:30pm NE 15 16 - - - - - - - - - -
01/08:00pm NE 15 16 - - - - - - - - - -

Other formats

Comma delimited format used in spreadsheet applications
http://www.bom.gov.au/fwo/IDV60701/IDV60701.94853.axf

JavaScript Object Notation format (JSON) in row-major order
http://www.bom.gov.au/fwo/IDV60701/IDV60701.94853.json

Data quality

Most of these data are generated automatically and are frequently updated. Quality checks on data are not normally performed. It is possible for incorrect values to appear. Refer to information at About Latest Weather Observations and please check the disclaimer before using these data.